createdAt,value
2022-11-17T00:02:25.576Z,4.15
2022-11-17T00:05:31.760Z,5.10
2022-11-17T00:08:34.720Z,3.38
2022-11-17T00:11:56.662Z,4.55
2022-11-17T00:14:59.645Z,3.78
2022-11-17T00:18:21.404Z,3.58
2022-11-17T00:21:27.300Z,4.05
2022-11-17T00:24:30.418Z,4.57
2022-11-17T00:27:33.149Z,4.75
2022-11-17T00:30:55.030Z,4.30
2022-11-17T00:34:07.263Z,3.40
2022-11-17T00:37:11.882Z,3.65
2022-11-17T00:43:17.823Z,3.65
2022-11-17T00:46:20.487Z,3.45
2022-11-17T00:49:29.597Z,3.88
2022-11-17T00:52:33.137Z,3.90
2022-11-17T00:55:36.095Z,3.35
2022-11-17T00:58:39.111Z,5.43
2022-11-17T01:01:42.655Z,5.10
2022-11-17T01:04:45.486Z,7.05
2022-11-17T01:07:48.404Z,3.92
2022-11-17T01:10:51.225Z,4.07
2022-11-17T01:14:04.158Z,3.80
2022-11-17T01:17:08.564Z,4.53
2022-11-17T01:20:11.420Z,4.38
2022-11-17T01:23:14.413Z,4.22
2022-11-17T01:26:20.981Z,4.38
2022-11-17T01:29:23.617Z,5.00
2022-11-17T01:32:26.619Z,4.25
2022-11-17T01:35:29.975Z,3.83
2022-11-17T01:38:35.408Z,4.40
2022-11-17T01:41:39.446Z,4.70
2022-11-17T01:44:44.754Z,4.53
2022-11-17T01:47:56.095Z,5.20
2022-11-17T01:51:01.854Z,6.90
2022-11-17T01:54:08.103Z,8.18
2022-11-17T01:57:15.324Z,7.78
2022-11-17T02:00:17.904Z,4.40
2022-11-17T02:03:20.433Z,6.50
2022-11-17T02:06:31.121Z,5.47
2022-11-17T02:09:35.818Z,4.90
2022-11-17T02:12:39.007Z,4.88
2022-11-17T02:15:41.478Z,5.55
2022-11-17T02:18:48.189Z,5.30
2022-11-17T02:22:10.742Z,7.07
2022-11-17T02:25:43.619Z,5.28
2022-11-17T02:29:01.442Z,5.55
2022-11-17T02:32:10.769Z,5.35
2022-11-17T02:35:26.956Z,5.35
2022-11-17T02:38:36.237Z,4.75
2022-11-17T02:41:55.875Z,5.35
2022-11-17T02:45:03.342Z,5.30
2022-11-17T02:48:13.554Z,5.03
2022-11-17T02:51:20.549Z,5.32
2022-11-17T02:54:25.137Z,5.40
2022-11-17T02:57:29.065Z,5.35
2022-11-17T03:03:50.329Z,5.03
2022-11-17T03:07:03.967Z,5.40
2022-11-17T03:10:14.661Z,5.38
2022-11-17T03:14:02.857Z,4.70
2022-11-17T03:17:30.413Z,5.18
2022-11-17T03:20:43.192Z,5.55
2022-11-17T03:23:49.919Z,5.72
2022-11-17T03:26:55.921Z,6.40
2022-11-17T03:30:02.586Z,5.72
2022-11-17T03:33:09.301Z,6.30
2022-11-17T03:36:14.618Z,6.45
2022-11-17T03:39:43.188Z,8.48
2022-11-17T03:42:55.097Z,6.65
2022-11-17T03:46:04.659Z,7.28
2022-11-17T03:49:12.017Z,6.70
2022-11-17T03:52:14.750Z,5.60
2022-11-17T03:55:18.063Z,6.43
2022-11-17T04:01:23.918Z,6.50
2022-11-17T04:04:48.590Z,5.28
2022-11-17T04:07:52.112Z,5.88
2022-11-17T04:11:13.265Z,6.90
2022-11-17T04:14:34.834Z,6.07
2022-11-17T04:17:38.961Z,6.22
2022-11-17T04:20:42.683Z,7.07
2022-11-17T04:23:45.847Z,7.35
2022-11-17T04:27:07.071Z,7.40
2022-11-17T04:30:10.323Z,7.82
2022-11-17T04:33:12.866Z,5.80
2022-11-17T04:36:18.047Z,6.85
2022-11-17T04:39:21.250Z,6.95
2022-11-17T04:42:23.601Z,7.03
2022-11-17T04:45:27.239Z,7.00
2022-11-17T04:51:36.922Z,6.53
2022-11-17T04:54:42.828Z,8.30
2022-11-17T04:57:47.510Z,9.30
2022-11-17T05:00:50.069Z,11.05
2022-11-17T05:03:54.092Z,9.77
2022-11-17T05:06:56.629Z,7.10
2022-11-17T05:09:59.730Z,6.55
2022-11-17T05:13:21.141Z,5.05
2022-11-17T05:16:43.059Z,6.50
2022-11-17T05:19:47.511Z,5.45
2022-11-17T05:23:08.771Z,6.25
2022-11-17T05:26:11.125Z,5.45
2022-11-17T05:29:15.707Z,5.88
2022-11-17T05:32:18.383Z,6.10
2022-11-17T05:35:21.465Z,8.65
2022-11-17T05:38:23.817Z,9.80
2022-11-17T05:41:27.909Z,6.18
2022-11-17T05:44:30.607Z,7.38
2022-11-17T05:47:35.727Z,6.55
2022-11-17T05:50:39.252Z,7.32
2022-11-17T05:53:42.276Z,5.68
2022-11-17T05:56:58.939Z,8.10
2022-11-17T06:00:07.446Z,8.40
2022-11-17T06:03:21.060Z,8.93
2022-11-17T06:06:24.655Z,7.75
2022-11-17T06:09:28.340Z,10.35
2022-11-17T06:12:31.486Z,10.82
2022-11-17T06:15:35.578Z,7.63
2022-11-17T06:18:47.910Z,11.02
2022-11-17T06:22:11.245Z,10.27
2022-11-17T06:25:15.699Z,8.98
2022-11-17T06:28:20.356Z,7.20
2022-11-17T06:31:23.546Z,9.13
2022-11-17T06:34:27.534Z,7.05
2022-11-17T06:37:30.189Z,8.77
2022-11-17T06:40:33.254Z,9.73
2022-11-17T06:43:36.211Z,15.38
2022-11-17T06:46:39.117Z,8.75
2022-11-17T06:49:41.582Z,9.30
2022-11-17T06:52:44.280Z,9.60
2022-11-17T06:56:06.486Z,8.23
2022-11-17T06:59:08.886Z,8.82
2022-11-17T07:02:11.964Z,8.75
2022-11-17T07:05:14.431Z,7.97
2022-11-17T07:08:16.867Z,8.55
2022-11-17T07:11:19.460Z,13.70
2022-11-17T07:14:22.293Z,10.27
2022-11-17T07:17:24.875Z,39.20
2022-11-17T07:20:27.511Z,11.50
2022-11-17T07:23:30.442Z,7.43
2022-11-17T07:26:32.992Z,5.80
2022-11-17T07:29:36.668Z,7.68
2022-11-17T07:35:42.885Z,6.25
2022-11-17T07:38:45.780Z,6.70
2022-11-17T07:41:49.060Z,8.15
2022-11-17T07:44:51.997Z,8.02
2022-11-17T07:47:59.243Z,11.83
2022-11-17T07:51:03.406Z,12.20
2022-11-17T07:54:05.987Z,8.77
2022-11-17T07:57:09.820Z,9.45
2022-11-17T08:00:13.648Z,7.53
2022-11-17T08:03:16.157Z,8.00
2022-11-17T08:06:18.759Z,11.68
2022-11-17T08:09:21.388Z,26.25
2022-11-17T08:12:24.260Z,12.88
2022-11-17T08:15:28.207Z,12.63
2022-11-17T08:18:32.147Z,17.45
2022-11-17T08:21:38.177Z,21.38
2022-11-17T08:24:42.492Z,13.07
2022-11-17T08:27:45.305Z,14.30
2022-11-17T08:30:47.807Z,14.40
2022-11-17T08:33:50.764Z,21.15
2022-11-17T08:36:53.344Z,34.47
2022-11-17T08:39:55.858Z,14.52
2022-11-17T08:43:01.463Z,54.88
2022-11-17T08:46:04.682Z,22.35
2022-11-17T08:49:07.440Z,6.65
2022-11-17T08:52:10.368Z,19.13
2022-11-17T08:55:13.711Z,12.63
2022-11-17T08:58:16.506Z,8.88
2022-11-17T09:01:19.188Z,12.18
2022-11-17T09:04:24.867Z,13.20
2022-11-17T09:07:33.483Z,9.13
2022-11-17T09:10:40.410Z,11.30
2022-11-17T09:13:43.686Z,9.55
2022-11-17T09:16:55.255Z,11.07
2022-11-17T09:20:04.371Z,9.98
2022-11-17T09:23:07.574Z,10.18
2022-11-17T09:26:13.294Z,10.50
2022-11-17T09:29:16.724Z,10.65
2022-11-17T09:32:20.970Z,10.63
2022-11-17T09:38:25.823Z,10.35
2022-11-17T09:41:40.053Z,8.82
2022-11-17T09:48:39.409Z,11.68
2022-11-17T09:51:39.236Z,14.63
2022-11-17T09:54:50.867Z,10.82
2022-11-17T09:58:23.540Z,21.58
2022-11-17T10:01:29.467Z,19.92
2022-11-17T10:04:32.700Z,20.10
2022-11-17T10:07:37.218Z,11.30
2022-11-17T10:10:52.827Z,9.18
2022-11-17T10:13:55.679Z,9.93
2022-11-17T10:16:59.706Z,10.98
2022-11-17T10:20:03.526Z,18.27
2022-11-17T10:23:07.492Z,15.98
2022-11-17T10:29:15.465Z,13.20
2022-11-17T10:32:17.956Z,12.60
2022-11-17T10:35:24.482Z,19.25
2022-11-17T10:38:29.230Z,26.13
2022-11-17T10:41:38.484Z,12.38
2022-11-17T10:44:42.316Z,16.15
2022-11-17T10:47:45.360Z,10.48
2022-11-17T10:51:02.120Z,7.07
2022-11-17T10:54:15.532Z,14.18
2022-11-17T10:57:23.049Z,10.77
2022-11-17T11:00:33.150Z,7.30
2022-11-17T11:03:36.465Z,7.20
2022-11-17T11:06:39.212Z,5.75
2022-11-17T11:10:06.607Z,12.18
2022-11-17T11:13:41.038Z,12.05
2022-11-17T11:16:48.188Z,8.05
2022-11-17T11:19:53.285Z,8.25
2022-11-17T11:23:27.054Z,8.07
2022-11-17T11:26:41.200Z,7.67
2022-11-17T11:30:01.128Z,7.68
2022-11-17T11:33:16.121Z,8.48
2022-11-17T11:36:41.831Z,11.23
2022-11-17T11:39:47.111Z,8.65
2022-11-17T11:43:06.436Z,8.93
2022-11-17T11:46:42.504Z,10.60
2022-11-17T11:49:57.042Z,9.02
2022-11-17T11:53:21.757Z,10.07
2022-11-17T11:56:36.404Z,9.48
2022-11-17T12:00:17.900Z,9.75
2022-11-17T12:03:30.754Z,10.70
2022-11-17T12:06:56.415Z,12.75
2022-11-17T12:10:14.101Z,11.85
2022-11-17T12:13:19.035Z,11.90
2022-11-17T12:16:44.130Z,10.90
2022-11-17T12:19:54.442Z,11.15
2022-11-17T12:23:20.303Z,9.45
2022-11-17T12:26:28.407Z,12.65
2022-11-17T12:29:32.262Z,11.05
2022-11-17T12:32:50.278Z,14.13
2022-11-17T12:36:36.781Z,11.40
2022-11-17T12:39:57.928Z,10.02
2022-11-17T12:43:25.362Z,10.00
2022-11-17T12:46:31.602Z,9.77
2022-11-17T12:49:42.197Z,10.75
2022-11-17T12:52:44.628Z,10.70
2022-11-17T12:56:13.175Z,10.88
2022-11-17T12:59:35.665Z,11.68
2022-11-17T13:03:12.976Z,10.73
2022-11-17T13:09:39.544Z,8.23
2022-11-17T13:12:42.342Z,11.35
2022-11-17T13:15:45.563Z,16.17
2022-11-17T13:18:49.659Z,24.83
2022-11-17T13:22:02.509Z,16.00
2022-11-17T13:25:23.161Z,18.15
2022-11-17T13:28:33.045Z,52.30
2022-11-17T13:31:37.817Z,20.48
2022-11-17T13:34:56.777Z,124.15
2022-11-17T13:38:23.078Z,27.95
2022-11-17T13:41:26.760Z,12.15
2022-11-17T13:44:29.808Z,17.15
2022-11-17T13:47:38.493Z,10.43
2022-11-17T13:50:41.539Z,22.85
2022-11-17T13:53:48.064Z,22.30
2022-11-17T13:56:56.950Z,24.10
2022-11-17T14:00:00.867Z,32.65
2022-11-17T14:03:07.246Z,40.88
2022-11-17T14:06:13.441Z,21.40
2022-11-17T14:09:19.732Z,24.17
2022-11-17T14:12:22.496Z,15.30
2022-11-17T14:15:27.622Z,19.05
2022-11-17T14:18:38.974Z,33.15
2022-11-17T14:22:04.096Z,36.63
2022-11-17T14:25:07.155Z,219.43
2022-11-17T14:28:22.931Z,123.05
2022-11-17T14:31:27.828Z,80.80
2022-11-17T14:34:32.885Z,46.85
2022-11-17T14:37:35.861Z,54.13
2022-11-17T14:40:38.351Z,41.40
2022-11-17T14:43:41.448Z,35.37
2022-11-17T14:46:44.269Z,22.63
2022-11-17T14:49:47.452Z,13.32
2022-11-17T14:52:53.314Z,34.33
2022-11-17T14:55:56.045Z,43.50
2022-11-17T14:59:00.435Z,26.33
2022-11-17T15:02:03.632Z,28.08
2022-11-17T15:05:07.192Z,18.25
2022-11-17T15:08:10.590Z,12.23
2022-11-17T15:11:18.387Z,9.35
2022-11-17T15:14:20.889Z,11.77
2022-11-17T15:17:23.752Z,11.82
2022-11-17T15:20:26.188Z,68.83
2022-11-17T15:23:29.267Z,20.73
2022-11-17T15:26:31.896Z,66.90
2022-11-17T15:29:34.649Z,69.38
2022-11-17T15:32:38.862Z,71.90
2022-11-17T15:35:41.708Z,49.17
2022-11-17T15:38:45.507Z,19.60
2022-11-17T15:44:52.539Z,25.42
2022-11-17T15:47:55.235Z,21.75
2022-11-17T15:50:59.244Z,32.55
2022-11-17T15:54:03.839Z,15.13
2022-11-17T15:57:10.257Z,15.25
2022-11-17T16:00:13.642Z,47.35
2022-11-17T16:03:17.573Z,25.30
2022-11-17T16:06:20.424Z,14.27
2022-11-17T16:09:22.904Z,21.63
2022-11-17T16:12:30.603Z,38.95
2022-11-17T16:15:34.997Z,32.90
2022-11-17T16:18:39.059Z,20.27
2022-11-17T16:21:44.746Z,15.55
2022-11-17T16:24:47.825Z,14.85
2022-11-17T16:27:50.233Z,18.00
2022-11-17T16:30:54.065Z,18.10
2022-11-17T16:37:10.602Z,29.27
2022-11-17T16:40:13.666Z,23.80
2022-11-17T16:43:16.316Z,17.93
2022-11-17T16:46:28.401Z,33.53
2022-11-17T16:49:32.743Z,20.95
2022-11-17T16:52:35.349Z,16.33
2022-11-17T16:55:40.213Z,18.23
2022-11-17T16:58:42.822Z,41.20
2022-11-17T17:01:45.798Z,22.02
2022-11-17T17:04:51.160Z,18.40
2022-11-17T17:07:54.811Z,22.30
2022-11-17T17:11:03.216Z,18.30
2022-11-17T17:14:08.448Z,14.85
2022-11-17T17:17:10.949Z,15.52
2022-11-17T17:20:13.434Z,17.33
2022-11-17T17:23:16.205Z,20.30
2022-11-17T17:26:22.585Z,28.45
2022-11-17T17:29:25.371Z,43.70
2022-11-17T17:32:30.779Z,61.33
2022-11-17T17:35:35.168Z,20.65
2022-11-17T17:38:38.899Z,39.55
2022-11-17T17:41:43.650Z,21.58
2022-11-17T17:44:46.670Z,52.50
2022-11-17T17:47:49.429Z,35.83
2022-11-17T17:50:51.987Z,33.03
2022-11-17T17:53:56.345Z,25.23
2022-11-17T17:56:58.983Z,24.27
2022-11-17T18:00:03.498Z,29.75
2022-11-17T18:03:07.476Z,28.38
2022-11-17T18:06:11.038Z,24.40
2022-11-17T18:09:16.103Z,21.63
2022-11-17T18:12:19.310Z,19.05
2022-11-17T18:15:23.691Z,19.70
2022-11-17T18:18:26.951Z,17.55
2022-11-17T18:21:31.412Z,24.92
2022-11-17T18:24:33.936Z,24.15
2022-11-17T18:27:36.317Z,34.78
2022-11-17T18:30:38.886Z,29.77
2022-11-17T18:33:41.459Z,25.73
2022-11-17T18:36:44.279Z,25.30
2022-11-17T18:39:47.852Z,24.48
2022-11-17T18:42:51.179Z,23.30
2022-11-17T18:45:53.771Z,21.33
2022-11-17T18:48:57.016Z,20.20
2022-11-17T18:51:59.733Z,20.15
2022-11-17T18:55:03.118Z,20.23
2022-11-17T18:58:05.972Z,18.88
2022-11-17T19:01:12.918Z,22.73
2022-11-17T19:04:21.888Z,20.75
2022-11-17T19:07:26.176Z,20.15
2022-11-17T19:10:34.216Z,18.67
2022-11-17T19:13:39.349Z,21.35
2022-11-17T19:16:49.821Z,21.25
2022-11-17T19:19:55.738Z,23.73
2022-11-17T19:22:58.440Z,21.70
2022-11-17T19:26:04.956Z,21.75
2022-11-17T19:29:17.219Z,20.70
2022-11-17T19:32:20.241Z,21.08
2022-11-17T19:35:23.446Z,23.90
2022-11-17T19:38:25.865Z,25.90
2022-11-17T19:41:36.481Z,26.58
2022-11-17T19:44:39.078Z,29.15
2022-11-17T19:47:41.723Z,21.48
2022-11-17T19:50:44.673Z,29.05
2022-11-17T19:53:52.373Z,29.38
2022-11-17T19:56:54.701Z,26.30
2022-11-17T19:59:57.316Z,27.77
2022-11-17T20:03:00.830Z,27.17
2022-11-17T20:06:03.874Z,26.75
2022-11-17T20:09:08.883Z,22.92
2022-11-17T20:12:11.775Z,29.48
2022-11-17T20:15:33.187Z,30.17
2022-11-17T20:18:36.752Z,32.28
2022-11-17T20:21:39.685Z,29.70
2022-11-17T20:24:42.042Z,25.47
2022-11-17T20:27:44.383Z,33.45
2022-11-17T20:30:46.810Z,31.83
2022-11-17T20:33:49.580Z,29.67
2022-11-17T20:36:51.848Z,26.67
2022-11-17T20:39:54.122Z,29.90
2022-11-17T20:42:56.786Z,27.20
2022-11-17T20:45:59.520Z,22.37
2022-11-17T20:49:01.955Z,26.15
2022-11-17T20:52:07.979Z,28.67
2022-11-17T20:55:14.809Z,34.25
2022-11-17T20:58:17.697Z,32.28
2022-11-17T21:01:24.370Z,32.65
2022-11-17T21:04:27.515Z,34.30
2022-11-17T21:07:30.430Z,21.80
2022-11-17T21:10:33.253Z,25.13
2022-11-17T21:13:36.493Z,27.63
2022-11-17T21:16:42.664Z,21.25
2022-11-17T21:19:45.343Z,28.50
2022-11-17T21:22:49.272Z,30.60
2022-11-17T21:25:52.439Z,27.75
2022-11-17T21:28:55.246Z,27.48
2022-11-17T21:31:57.916Z,23.60
2022-11-17T21:35:01.555Z,27.23
2022-11-17T21:38:04.216Z,25.00
2022-11-17T21:41:15.355Z,21.42
2022-11-17T21:44:18.133Z,21.20
2022-11-17T21:47:21.900Z,22.03
2022-11-17T21:50:25.949Z,24.63
2022-11-17T21:53:30.070Z,22.20
2022-11-17T21:56:32.484Z,22.50
2022-11-17T21:59:34.769Z,23.48
2022-11-17T22:02:37.051Z,24.23
2022-11-17T22:05:40.172Z,19.88
2022-11-17T22:08:43.790Z,18.02
2022-11-17T22:14:48.915Z,24.65
2022-11-17T22:17:51.624Z,23.92
2022-11-17T22:20:54.284Z,23.23
2022-11-17T22:23:57.369Z,23.08
2022-11-17T22:27:01.169Z,20.90
2022-11-17T22:30:03.825Z,19.35
2022-11-17T22:33:06.742Z,18.30
2022-11-17T22:36:10.893Z,18.48
2022-11-17T22:39:13.821Z,19.52
2022-11-17T22:42:19.889Z,20.05
2022-11-17T22:45:22.867Z,20.88
2022-11-17T22:48:25.229Z,20.92
2022-11-17T22:51:46.215Z,21.90
2022-11-17T22:54:48.835Z,22.63
2022-11-17T22:57:51.957Z,14.10
2022-11-17T23:00:55.521Z,13.73
2022-11-17T23:03:57.990Z,18.13
2022-11-17T23:07:00.466Z,18.13
2022-11-17T23:10:03.862Z,17.73
2022-11-17T23:13:10.870Z,16.92
2022-11-17T23:16:13.556Z,19.95
2022-11-17T23:19:16.402Z,19.58
2022-11-17T23:22:19.048Z,16.67
2022-11-17T23:25:22.164Z,17.25
2022-11-17T23:28:25.462Z,16.33
2022-11-17T23:31:28.852Z,17.05
2022-11-17T23:34:35.897Z,16.98
2022-11-17T23:37:38.832Z,16.45
2022-11-17T23:40:41.492Z,16.50
2022-11-17T23:43:43.844Z,11.95
2022-11-17T23:46:46.534Z,16.48
2022-11-17T23:49:49.051Z,12.40
2022-11-17T23:52:51.436Z,16.65
2022-11-17T23:55:57.133Z,15.98
2022-11-17T23:59:00.016Z,16.40
